ESGG/GOT METAR and TAF weather

Enter ICAO airport designator
Station Type Date Time Source
ESGG METAR 2021/09/16 21:20 UTC NOAA

ESGG 162120Z 03014KT 8000 DZ BKN006 08/08 Q1011


Station Type Date Time Source
ESGG Decoded METAR 2021/09/16 21:20 UTC NOAA

Goteborg / Landvetter, Sweden (ESGG) 57-40N 012-18E
Sep 16, 2021 - 05:20 PM EDT / 2021.09.16 2120 UTC
Wind: from the NNE (030 degrees) at 16 MPH (14 KT):0
Visibility: 4 mile(s):0
Sky conditions: mostly cloudy
Weather: drizzle
Temperature: 46 F (8 C)
Dew Point: 46 F (8 C)
Relative Humidity: 100%
Pressure (altimeter): 29.85 in. Hg (1011 hPa)
ob: ESGG 162120Z 03014KT 8000 DZ BKN006 08/08 Q1011
cycle: 21

Station Type Date Time Source
ESGG TAF 2021/09/16 18:21 UTC NOAA

TAF TAF ESGG 161730Z 1618/1718 03013KT 9000 SCT005 BKN015
TEMPO 1618/1709 2500 RADZ BR BKN004
TEMPO 1709/1716 BKN008

Example: see airport list